sensor_id;sensor_type;location;lat;lon;timestamp;temperature;humidity
68139;DHT22;54940;50.842;4.410;2023-08-20T00:01:06;21.70;99.90
68139;DHT22;54940;50.842;4.410;2023-08-20T00:03:35;21.70;99.90
68139;DHT22;54940;50.842;4.410;2023-08-20T00:06:01;21.70;99.90
68139;DHT22;54940;50.842;4.410;2023-08-20T00:08:29;21.70;99.90
68139;DHT22;54940;50.842;4.410;2023-08-20T00:10:55;21.70;99.90
68139;DHT22;54940;50.842;4.410;2023-08-20T00:13:20;21.70;99.90
68139;DHT22;54940;50.842;4.410;2023-08-20T00:15:48;21.60;99.90
68139;DHT22;54940;50.842;4.410;2023-08-20T00:18:17;21.70;99.90
68139;DHT22;54940;50.842;4.410;2023-08-20T00:20:43;21.60;99.90
68139;DHT22;54940;50.842;4.410;2023-08-20T00:23:11;21.60;99.90
68139;DHT22;54940;50.842;4.410;2023-08-20T00:25:37;21.60;99.90
68139;DHT22;54940;50.842;4.410;2023-08-20T00:28:03;21.60;99.90
68139;DHT22;54940;50.842;4.410;2023-08-20T00:30:29;21.60;99.90
68139;DHT22;54940;50.842;4.410;2023-08-20T00:32:57;21.50;99.90
68139;DHT22;54940;50.842;4.410;2023-08-20T00:35:25;21.60;99.90
68139;DHT22;54940;50.842;4.410;2023-08-20T00:37:51;21.50;99.90
68139;DHT22;54940;50.842;4.410;2023-08-20T00:40:19;21.50;99.90
68139;DHT22;54940;50.842;4.410;2023-08-20T00:42:45;21.50;99.90
68139;DHT22;54940;50.842;4.410;2023-08-20T00:45:10;21.50;99.90
68139;DHT22;54940;50.842;4.410;2023-08-20T00:47:37;21.50;99.90
68139;DHT22;54940;50.842;4.410;2023-08-20T00:50:03;21.50;99.90
68139;DHT22;54940;50.842;4.410;2023-08-20T00:52:32;21.40;99.90
68139;DHT22;54940;50.842;4.410;2023-08-20T00:55:03;21.40;99.90
68139;DHT22;54940;50.842;4.410;2023-08-20T00:57:30;21.40;99.90
68139;DHT22;54940;50.842;4.410;2023-08-20T00:59:56;21.40;99.90
68139;DHT22;54940;50.842;4.410;2023-08-20T01:02:22;21.30;99.90
68139;DHT22;54940;50.842;4.410;2023-08-20T01:04:51;21.40;99.90
68139;DHT22;54940;50.842;4.410;2023-08-20T01:12:26;21.30;99.90
68139;DHT22;54940;50.842;4.410;2023-08-20T01:14:52;21.30;99.90
68139;DHT22;54940;50.842;4.410;2023-08-20T01:17:18;21.30;99.90
68139;DHT22;54940;50.842;4.410;2023-08-20T01:19:44;21.30;99.90
68139;DHT22;54940;50.842;4.410;2023-08-20T01:22:37;21.30;99.90
68139;DHT22;54940;50.842;4.410;2023-08-20T01:25:24;21.30;99.90
68139;DHT22;54940;50.842;4.410;2023-08-20T01:28:25;21.30;99.90
68139;DHT22;54940;50.842;4.410;2023-08-20T01:31:03;21.30;99.90
68139;DHT22;54940;50.842;4.410;2023-08-20T01:33:29;21.30;99.90
68139;DHT22;54940;50.842;4.410;2023-08-20T01:35:55;21.30;99.90
68139;DHT22;54940;50.842;4.410;2023-08-20T01:38:21;21.30;99.90
68139;DHT22;54940;50.842;4.410;2023-08-20T01:40:48;21.30;99.90
68139;DHT22;54940;50.842;4.410;2023-08-20T01:43:14;21.30;99.90
68139;DHT22;54940;50.842;4.410;2023-08-20T01:45:40;21.30;99.90
68139;DHT22;54940;50.842;4.410;2023-08-20T01:48:06;21.30;99.90
68139;DHT22;54940;50.842;4.410;2023-08-20T01:50:33;21.30;99.90
68139;DHT22;54940;50.842;4.410;2023-08-20T01:53:00;21.30;99.90
68139;DHT22;54940;50.842;4.410;2023-08-20T01:55:25;21.40;99.90
68139;DHT22;54940;50.842;4.410;2023-08-20T01:57:51;21.40;99.90
68139;DHT22;54940;50.842;4.410;2023-08-20T02:00:17;21.40;99.90
68139;DHT22;54940;50.842;4.410;2023-08-20T02:02:42;21.30;99.90
68139;DHT22;54940;50.842;4.410;2023-08-20T02:05:08;21.30;99.90
68139;DHT22;54940;50.842;4.410;2023-08-20T02:07:36;21.30;99.90
68139;DHT22;54940;50.842;4.410;2023-08-20T02:10:01;21.30;99.90
68139;DHT22;54940;50.842;4.410;2023-08-20T02:12:29;21.30;99.90
68139;DHT22;54940;50.842;4.410;2023-08-20T02:14:55;21.30;99.90
68139;DHT22;54940;50.842;4.410;2023-08-20T02:17:23;21.30;99.90
68139;DHT22;54940;50.842;4.410;2023-08-20T02:19:51;21.30;99.90
68139;DHT22;54940;50.842;4.410;2023-08-20T02:22:17;21.30;99.90
68139;DHT22;54940;50.842;4.410;2023-08-20T02:24:46;21.20;99.90
68139;DHT22;54940;50.842;4.410;2023-08-20T02:27:14;21.20;99.90
68139;DHT22;54940;50.842;4.410;2023-08-20T02:29:40;21.20;99.90
68139;DHT22;54940;50.842;4.410;2023-08-20T02:32:06;21.20;99.90
68139;DHT22;54940;50.842;4.410;2023-08-20T02:34:34;21.10;99.90
68139;DHT22;54940;50.842;4.410;2023-08-20T02:36:59;21.10;99.90
68139;DHT22;54940;50.842;4.410;2023-08-20T02:39:25;21.10;99.90
68139;DHT22;54940;50.842;4.410;2023-08-20T02:41:50;21.10;99.90
68139;DHT22;54940;50.842;4.410;2023-08-20T02:44:16;21.10;99.90
68139;DHT22;54940;50.842;4.410;2023-08-20T02:46:42;21.00;99.90
68139;DHT22;54940;50.842;4.410;2023-08-20T02:49:10;21.00;99.90
68139;DHT22;54940;50.842;4.410;2023-08-20T02:51:35;21.00;99.90
68139;DHT22;54940;50.842;4.410;2023-08-20T02:54:01;21.00;99.90
68139;DHT22;54940;50.842;4.410;2023-08-20T02:56:29;20.90;99.90
68139;DHT22;54940;50.842;4.410;2023-08-20T02:58:54;20.90;99.90
68139;DHT22;54940;50.842;4.410;2023-08-20T03:01:21;20.80;99.90
68139;DHT22;54940;50.842;4.410;2023-08-20T03:03:47;20.90;99.90
68139;DHT22;54940;50.842;4.410;2023-08-20T03:06:13;20.90;99.90
68139;DHT22;54940;50.842;4.410;2023-08-20T03:08:39;20.80;99.90
68139;DHT22;54940;50.842;4.410;2023-08-20T03:11:04;20.80;99.90
68139;DHT22;54940;50.842;4.410;2023-08-20T03:13:30;20.80;99.90
68139;DHT22;54940;50.842;4.410;2023-08-20T03:15:58;20.70;99.90
68139;DHT22;54940;50.842;4.410;2023-08-20T03:18:26;20.70;99.90
68139;DHT22;54940;50.842;4.410;2023-08-20T03:20:54;20.70;99.90
68139;DHT22;54940;50.842;4.410;2023-08-20T03:23:20;20.70;99.90
68139;DHT22;54940;50.842;4.410;2023-08-20T03:25:46;20.70;99.90
68139;DHT22;54940;50.842;4.410;2023-08-20T03:28:12;20.70;99.90
68139;DHT22;54940;50.842;4.410;2023-08-20T03:30:37;20.60;99.90
68139;DHT22;54940;50.842;4.410;2023-08-20T03:33:03;20.60;99.90
68139;DHT22;54940;50.842;4.410;2023-08-20T03:35:29;20.60;99.90
68139;DHT22;54940;50.842;4.410;2023-08-20T03:37:57;20.60;99.90
68139;DHT22;54940;50.842;4.410;2023-08-20T03:40:23;20.60;99.90
68139;DHT22;54940;50.842;4.410;2023-08-20T03:42:49;20.50;99.90
68139;DHT22;54940;50.842;4.410;2023-08-20T03:45:14;20.50;99.90
68139;DHT22;54940;50.842;4.410;2023-08-20T03:47:40;20.50;99.90
68139;DHT22;54940;50.842;4.410;2023-08-20T03:50:09;20.50;99.90
68139;DHT22;54940;50.842;4.410;2023-08-20T03:52:37;20.40;99.90
68139;DHT22;54940;50.842;4.410;2023-08-20T03:55:03;20.40;99.90
68139;DHT22;54940;50.842;4.410;2023-08-20T03:57:28;20.40;99.90
68139;DHT22;54940;50.842;4.410;2023-08-20T03:59:54;20.40;99.90
68139;DHT22;54940;50.842;4.410;2023-08-20T04:02:20;20.40;99.90
68139;DHT22;54940;50.842;4.410;2023-08-20T04:04:45;20.40;99.90
68139;DHT22;54940;50.842;4.410;2023-08-20T04:07:11;20.40;99.90
68139;DHT22;54940;50.842;4.410;2023-08-20T04:09:36;20.40;99.90
68139;DHT22;54940;50.842;4.410;2023-08-20T04:12:04;20.30;99.90
68139;DHT22;54940;50.842;4.410;2023-08-20T04:14:29;20.30;99.90
68139;DHT22;54940;50.842;4.410;2023-08-20T04:16:55;20.30;99.90
68139;DHT22;54940;50.842;4.410;2023-08-20T04:19:21;20.30;99.90
68139;DHT22;54940;50.842;4.410;2023-08-20T04:21:46;20.20;99.90
68139;DHT22;54940;50.842;4.410;2023-08-20T04:24:12;20.20;99.90
68139;DHT22;54940;50.842;4.410;2023-08-20T04:26:38;20.20;99.90
68139;DHT22;54940;50.842;4.410;2023-08-20T04:29:06;20.20;99.90
68139;DHT22;54940;50.842;4.410;2023-08-20T04:31:31;20.20;99.90
68139;DHT22;54940;50.842;4.410;2023-08-20T04:33:57;20.20;99.90
68139;DHT22;54940;50.842;4.410;2023-08-20T04:36:22;20.20;99.90
68139;DHT22;54940;50.842;4.410;2023-08-20T04:38:48;20.20;99.90
68139;DHT22;54940;50.842;4.410;2023-08-20T04:41:14;20.20;99.90
68139;DHT22;54940;50.842;4.410;2023-08-20T04:43:39;20.20;99.90
68139;DHT22;54940;50.842;4.410;2023-08-20T04:46:11;20.10;99.90
68139;DHT22;54940;50.842;4.410;2023-08-20T04:48:37;20.10;99.90
68139;DHT22;54940;50.842;4.410;2023-08-20T04:51:03;20.10;99.90
68139;DHT22;54940;50.842;4.410;2023-08-20T04:53:32;20.20;99.90
68139;DHT22;54940;50.842;4.410;2023-08-20T04:55:58;20.20;99.90
68139;DHT22;54940;50.842;4.410;2023-08-20T04:58:24;20.20;99.90
68139;DHT22;54940;50.842;4.410;2023-08-20T05:00:49;20.20;99.90
68139;DHT22;54940;50.842;4.410;2023-08-20T05:03:15;20.20;99.90
68139;DHT22;54940;50.842;4.410;2023-08-20T05:05:40;20.20;99.90
68139;DHT22;54940;50.842;4.410;2023-08-20T05:08:06;20.20;99.90
68139;DHT22;54940;50.842;4.410;2023-08-20T05:10:36;20.20;99.90
68139;DHT22;54940;50.842;4.410;2023-08-20T05:13:02;20.20;99.90
68139;DHT22;54940;50.842;4.410;2023-08-20T05:15:28;20.30;99.90
68139;DHT22;54940;50.842;4.410;2023-08-20T05:17:54;20.30;99.90
68139;DHT22;54940;50.842;4.410;2023-08-20T05:20:20;20.30;99.90
68139;DHT22;54940;50.842;4.410;2023-08-20T05:22:46;20.30;99.90
68139;DHT22;54940;50.842;4.410;2023-08-20T05:25:11;20.30;99.90
68139;DHT22;54940;50.842;4.410;2023-08-20T05:27:37;20.60;99.90
68139;DHT22;54940;50.842;4.410;2023-08-20T05:30:03;21.40;99.90
68139;DHT22;54940;50.842;4.410;2023-08-20T05:32:29;22.30;99.90
68139;DHT22;54940;50.842;4.410;2023-08-20T05:34:54;23.30;99.90
68139;DHT22;54940;50.842;4.410;2023-08-20T05:37:29;24.10;99.90
68139;DHT22;54940;50.842;4.410;2023-08-20T05:39:55;24.90;99.90
68139;DHT22;54940;50.842;4.410;2023-08-20T05:42:20;25.60;99.90
68139;DHT22;54940;50.842;4.410;2023-08-20T05:44:46;26.30;99.90
68139;DHT22;54940;50.842;4.410;2023-08-20T05:47:12;26.90;99.90
68139;DHT22;54940;50.842;4.410;2023-08-20T05:49:37;27.30;99.90
68139;DHT22;54940;50.842;4.410;2023-08-20T05:52:03;27.80;99.90
68139;DHT22;54940;50.842;4.410;2023-08-20T05:54:29;28.30;99.90
68139;DHT22;54940;50.842;4.410;2023-08-20T05:56:54;28.50;99.90
68139;DHT22;54940;50.842;4.410;2023-08-20T05:59:22;28.90;99.90
68139;DHT22;54940;50.842;4.410;2023-08-20T06:01:48;29.20;99.90
68139;DHT22;54940;50.842;4.410;2023-08-20T06:04:13;29.60;99.90
68139;DHT22;54940;50.842;4.410;2023-08-20T06:06:39;29.60;99.90
68139;DHT22;54940;50.842;4.410;2023-08-20T06:09:06;29.40;99.90
68139;DHT22;54940;50.842;4.410;2023-08-20T06:11:31;29.50;99.90
68139;DHT22;54940;50.842;4.410;2023-08-20T06:13:57;30.00;99.90
68139;DHT22;54940;50.842;4.410;2023-08-20T06:16:22;30.50;99.90
68139;DHT22;54940;50.842;4.410;2023-08-20T06:18:48;30.90;99.90
68139;DHT22;54940;50.842;4.410;2023-08-20T06:21:14;31.50;99.90
68139;DHT22;54940;50.842;4.410;2023-08-20T06:23:39;31.20;99.90
68139;DHT22;54940;50.842;4.410;2023-08-20T06:26:05;30.70;99.90
68139;DHT22;54940;50.842;4.410;2023-08-20T06:28:31;30.40;99.90
68139;DHT22;54940;50.842;4.410;2023-08-20T06:30:56;30.30;99.90
68139;DHT22;54940;50.842;4.410;2023-08-20T06:33:22;30.60;99.90
68139;DHT22;54940;50.842;4.410;2023-08-20T06:35:47;30.30;99.90
68139;DHT22;54940;50.842;4.410;2023-08-20T06:38:13;30.40;99.90
68139;DHT22;54940;50.842;4.410;2023-08-20T06:40:39;30.10;99.90
68139;DHT22;54940;50.842;4.410;2023-08-20T06:43:05;29.20;99.90
68139;DHT22;54940;50.842;4.410;2023-08-20T06:45:31;28.40;99.90
68139;DHT22;54940;50.842;4.410;2023-08-20T06:47:56;27.90;99.90
68139;DHT22;54940;50.842;4.410;2023-08-20T06:50:24;27.90;99.90
68139;DHT22;54940;50.842;4.410;2023-08-20T06:52:50;28.50;99.90
68139;DHT22;54940;50.842;4.410;2023-08-20T06:55:15;29.10;99.90
68139;DHT22;54940;50.842;4.410;2023-08-20T06:57:41;29.80;99.90
68139;DHT22;54940;50.842;4.410;2023-08-20T07:00:07;30.30;99.90
68139;DHT22;54940;50.842;4.410;2023-08-20T07:02:32;30.50;99.90
68139;DHT22;54940;50.842;4.410;2023-08-20T07:04:58;30.80;99.90
68139;DHT22;54940;50.842;4.410;2023-08-20T07:07:24;31.10;99.90
68139;DHT22;54940;50.842;4.410;2023-08-20T07:09:49;31.20;99.90
68139;DHT22;54940;50.842;4.410;2023-08-20T07:12:15;31.40;99.90
68139;DHT22;54940;50.842;4.410;2023-08-20T07:14:41;31.50;99.90
68139;DHT22;54940;50.842;4.410;2023-08-20T07:17:07;31.70;99.90
68139;DHT22;54940;50.842;4.410;2023-08-20T07:19:33;31.80;99.90
68139;DHT22;54940;50.842;4.410;2023-08-20T07:21:58;31.90;99.90
68139;DHT22;54940;50.842;4.410;2023-08-20T07:24:24;31.80;99.90
68139;DHT22;54940;50.842;4.410;2023-08-20T07:26:54;31.50;99.90
68139;DHT22;54940;50.842;4.410;2023-08-20T07:29:26;31.30;99.90
68139;DHT22;54940;50.842;4.410;2023-08-20T07:31:55;31.10;99.90
68139;DHT22;54940;50.842;4.410;2023-08-20T07:34:21;31.10;99.90
68139;DHT22;54940;50.842;4.410;2023-08-20T07:36:47;31.00;99.90
68139;DHT22;54940;50.842;4.410;2023-08-20T07:39:12;30.60;99.90
68139;DHT22;54940;50.842;4.410;2023-08-20T07:41:40;30.90;99.90
68139;DHT22;54940;50.842;4.410;2023-08-20T07:44:05;31.00;99.90
68139;DHT22;54940;50.842;4.410;2023-08-20T07:46:31;31.00;99.90
68139;DHT22;54940;50.842;4.410;2023-08-20T07:48:57;30.80;99.90
68139;DHT22;54940;50.842;4.410;2023-08-20T07:51:23;30.80;99.90
68139;DHT22;54940;50.842;4.410;2023-08-20T07:53:48;31.00;99.90
68139;DHT22;54940;50.842;4.410;2023-08-20T07:56:14;31.20;99.90
68139;DHT22;54940;50.842;4.410;2023-08-20T07:58:39;31.30;99.90
68139;DHT22;54940;50.842;4.410;2023-08-20T08:01:05;31.60;99.90
68139;DHT22;54940;50.842;4.410;2023-08-20T08:03:33;31.50;99.90
68139;DHT22;54940;50.842;4.410;2023-08-20T08:05:59;30.80;99.90
68139;DHT22;54940;50.842;4.410;2023-08-20T08:08:25;30.50;99.90
68139;DHT22;54940;50.842;4.410;2023-08-20T08:10:51;30.80;99.90
68139;DHT22;54940;50.842;4.410;2023-08-20T08:13:22;30.80;99.90
68139;DHT22;54940;50.842;4.410;2023-08-20T08:15:48;31.00;99.90
68139;DHT22;54940;50.842;4.410;2023-08-20T08:18:14;30.90;99.90
68139;DHT22;54940;50.842;4.410;2023-08-20T08:20:40;31.10;99.90
68139;DHT22;54940;50.842;4.410;2023-08-20T08:23:06;31.40;99.90
68139;DHT22;54940;50.842;4.410;2023-08-20T08:25:31;31.20;99.90
68139;DHT22;54940;50.842;4.410;2023-08-20T08:27:57;31.50;99.90
68139;DHT22;54940;50.842;4.410;2023-08-20T08:30:23;31.60;99.90
68139;DHT22;54940;50.842;4.410;2023-08-20T08:32:48;31.70;99.90
68139;DHT22;54940;50.842;4.410;2023-08-20T08:35:14;31.80;99.90
68139;DHT22;54940;50.842;4.410;2023-08-20T08:37:40;32.00;99.90
68139;DHT22;54940;50.842;4.410;2023-08-20T08:40:06;32.20;99.90
68139;DHT22;54940;50.842;4.410;2023-08-20T08:42:35;31.90;99.90
68139;DHT22;54940;50.842;4.410;2023-08-20T08:45:01;31.50;99.90
68139;DHT22;54940;50.842;4.410;2023-08-20T08:47:30;31.30;99.90
68139;DHT22;54940;50.842;4.410;2023-08-20T08:49:56;31.30;99.90
68139;DHT22;54940;50.842;4.410;2023-08-20T08:52:25;31.50;99.90
68139;DHT22;54940;50.842;4.410;2023-08-20T08:54:52;31.60;99.90
68139;DHT22;54940;50.842;4.410;2023-08-20T08:57:18;31.50;99.90
68139;DHT22;54940;50.842;4.410;2023-08-20T08:59:44;31.50;99.90
68139;DHT22;54940;50.842;4.410;2023-08-20T09:02:11;31.50;99.90
68139;DHT22;54940;50.842;4.410;2023-08-20T09:04:41;31.20;99.90
68139;DHT22;54940;50.842;4.410;2023-08-20T09:07:12;31.50;99.90
68139;DHT22;54940;50.842;4.410;2023-08-20T09:09:42;31.50;99.90
68139;DHT22;54940;50.842;4.410;2023-08-20T09:12:15;31.50;99.90
68139;DHT22;54940;50.842;4.410;2023-08-20T09:14:46;31.40;99.90
68139;DHT22;54940;50.842;4.410;2023-08-20T09:17:12;31.60;99.90
68139;DHT22;54940;50.842;4.410;2023-08-20T09:19:38;31.80;99.90
68139;DHT22;54940;50.842;4.410;2023-08-20T09:22:04;32.00;99.90
68139;DHT22;54940;50.842;4.410;2023-08-20T09:24:38;31.90;99.90
68139;DHT22;54940;50.842;4.410;2023-08-20T09:27:05;31.90;99.90
68139;DHT22;54940;50.842;4.410;2023-08-20T09:29:51;31.10;99.90
68139;DHT22;54940;50.842;4.410;2023-08-20T09:32:19;30.30;99.90
68139;DHT22;54940;50.842;4.410;2023-08-20T09:34:44;30.10;99.90
68139;DHT22;54940;50.842;4.410;2023-08-20T09:37:12;30.10;99.90
68139;DHT22;54940;50.842;4.410;2023-08-20T09:39:38;30.30;99.90
68139;DHT22;54940;50.842;4.410;2023-08-20T09:42:05;30.60;99.90
68139;DHT22;54940;50.842;4.410;2023-08-20T09:44:36;30.90;99.90
68139;DHT22;54940;50.842;4.410;2023-08-20T09:47:05;31.10;99.90
68139;DHT22;54940;50.842;4.410;2023-08-20T09:49:35;31.40;99.90
68139;DHT22;54940;50.842;4.410;2023-08-20T09:52:04;31.20;99.90
68139;DHT22;54940;50.842;4.410;2023-08-20T09:54:55;31.40;99.90
68139;DHT22;54940;50.842;4.410;2023-08-20T09:57:40;31.50;99.90
68139;DHT22;54940;50.842;4.410;2023-08-20T10:00:08;31.30;99.90
68139;DHT22;54940;50.842;4.410;2023-08-20T10:02:36;31.60;99.90
68139;DHT22;54940;50.842;4.410;2023-08-20T10:05:04;30.90;99.90
68139;DHT22;54940;50.842;4.410;2023-08-20T10:07:31;30.70;99.90
68139;DHT22;54940;50.842;4.410;2023-08-20T10:10:01;30.30;99.90
68139;DHT22;54940;50.842;4.410;2023-08-20T10:12:30;30.10;99.90
68139;DHT22;54940;50.842;4.410;2023-08-20T10:14:57;30.40;99.90
68139;DHT22;54940;50.842;4.410;2023-08-20T10:17:23;30.50;99.90
68139;DHT22;54940;50.842;4.410;2023-08-20T10:19:52;30.60;99.90
68139;DHT22;54940;50.842;4.410;2023-08-20T10:22:19;30.50;99.90
68139;DHT22;54940;50.842;4.410;2023-08-20T10:24:53;29.70;99.90
68139;DHT22;54940;50.842;4.410;2023-08-20T10:27:33;29.60;99.90
68139;DHT22;54940;50.842;4.410;2023-08-20T10:30:03;30.00;99.90
68139;DHT22;54940;50.842;4.410;2023-08-20T10:32:47;30.60;99.90
68139;DHT22;54940;50.842;4.410;2023-08-20T10:35:15;31.10;99.90
68139;DHT22;54940;50.842;4.410;2023-08-20T10:40:51;31.50;99.90
68139;DHT22;54940;50.842;4.410;2023-08-20T10:46:22;31.20;99.90
68139;DHT22;54940;50.842;4.410;2023-08-20T10:48:58;30.80;99.90
68139;DHT22;54940;50.842;4.410;2023-08-20T10:51:29;31.00;99.90
68139;DHT22;54940;50.842;4.410;2023-08-20T10:56:48;31.30;99.90
68139;DHT22;54940;50.842;4.410;2023-08-20T10:59:16;30.50;99.90
68139;DHT22;54940;50.842;4.410;2023-08-20T11:01:49;30.60;99.90
68139;DHT22;54940;50.842;4.410;2023-08-20T11:04:16;30.90;99.90
68139;DHT22;54940;50.842;4.410;2023-08-20T11:06:43;31.40;99.90
68139;DHT22;54940;50.842;4.410;2023-08-20T11:09:09;31.60;99.90
68139;DHT22;54940;50.842;4.410;2023-08-20T11:11:38;31.50;99.90
68139;DHT22;54940;50.842;4.410;2023-08-20T11:14:07;30.70;99.90
68139;DHT22;54940;50.842;4.410;2023-08-20T11:16:36;30.30;99.90
68139;DHT22;54940;50.842;4.410;2023-08-20T11:19:03;30.00;99.90
68139;DHT22;54940;50.842;4.410;2023-08-20T11:21:32;30.30;99.90
68139;DHT22;54940;50.842;4.410;2023-08-20T11:24:02;30.90;99.90
68139;DHT22;54940;50.842;4.410;2023-08-20T11:26:28;31.20;99.90
68139;DHT22;54940;50.842;4.410;2023-08-20T11:28:53;31.00;99.90
68139;DHT22;54940;50.842;4.410;2023-08-20T11:31:19;30.90;99.90
68139;DHT22;54940;50.842;4.410;2023-08-20T11:33:45;31.20;99.90
68139;DHT22;54940;50.842;4.410;2023-08-20T11:36:14;31.50;99.90
68139;DHT22;54940;50.842;4.410;2023-08-20T11:38:40;31.80;99.90
68139;DHT22;54940;50.842;4.410;2023-08-20T11:41:08;31.70;99.90
68139;DHT22;54940;50.842;4.410;2023-08-20T11:43:34;31.10;99.90
68139;DHT22;54940;50.842;4.410;2023-08-20T11:46:00;30.70;99.90
68139;DHT22;54940;50.842;4.410;2023-08-20T11:48:26;29.50;99.90
68139;DHT22;54940;50.842;4.410;2023-08-20T11:50:51;30.00;99.90
68139;DHT22;54940;50.842;4.410;2023-08-20T11:53:22;30.50;99.90
68139;DHT22;54940;50.842;4.410;2023-08-20T11:55:49;30.90;99.90
68139;DHT22;54940;50.842;4.410;2023-08-20T11:58:14;31.50;99.90
68139;DHT22;54940;50.842;4.410;2023-08-20T12:00:40;31.80;99.90
68139;DHT22;54940;50.842;4.410;2023-08-20T12:03:08;32.00;99.90
68139;DHT22;54940;50.842;4.410;2023-08-20T12:05:37;32.30;99.90
68139;DHT22;54940;50.842;4.410;2023-08-20T12:08:06;32.10;99.90
68139;DHT22;54940;50.842;4.410;2023-08-20T12:10:32;31.90;99.90
68139;DHT22;54940;50.842;4.410;2023-08-20T12:12:58;31.70;99.90
68139;DHT22;54940;50.842;4.410;2023-08-20T12:15:25;31.40;99.90
68139;DHT22;54940;50.842;4.410;2023-08-20T12:18:04;31.40;99.90
68139;DHT22;54940;50.842;4.410;2023-08-20T12:20:31;31.70;99.90
68139;DHT22;54940;50.842;4.410;2023-08-20T12:22:59;31.60;99.90
68139;DHT22;54940;50.842;4.410;2023-08-20T12:25:31;31.60;99.90
68139;DHT22;54940;50.842;4.410;2023-08-20T12:27:57;31.60;99.90
68139;DHT22;54940;50.842;4.410;2023-08-20T12:30:23;31.10;99.90
68139;DHT22;54940;50.842;4.410;2023-08-20T12:32:49;31.30;99.90
68139;DHT22;54940;50.842;4.410;2023-08-20T12:35:14;31.40;99.90
68139;DHT22;54940;50.842;4.410;2023-08-20T12:37:40;31.40;99.90
68139;DHT22;54940;50.842;4.410;2023-08-20T12:40:06;31.40;99.90
68139;DHT22;54940;50.842;4.410;2023-08-20T12:42:37;31.40;99.90
68139;DHT22;54940;50.842;4.410;2023-08-20T12:45:05;31.50;99.90
68139;DHT22;54940;50.842;4.410;2023-08-20T12:47:31;31.70;99.90
68139;DHT22;54940;50.842;4.410;2023-08-20T12:49:57;31.60;99.90
68139;DHT22;54940;50.842;4.410;2023-08-20T12:52:23;31.70;99.90
68139;DHT22;54940;50.842;4.410;2023-08-20T12:54:48;31.60;99.90
68139;DHT22;54940;50.842;4.410;2023-08-20T12:57:14;31.70;99.90
68139;DHT22;54940;50.842;4.410;2023-08-20T12:59:42;31.80;99.90
68139;DHT22;54940;50.842;4.410;2023-08-20T13:02:08;31.80;99.90
68139;DHT22;54940;50.842;4.410;2023-08-20T13:04:34;31.90;99.90
68139;DHT22;54940;50.842;4.410;2023-08-20T13:06:59;32.00;99.90
68139;DHT22;54940;50.842;4.410;2023-08-20T13:09:29;31.90;99.90
68139;DHT22;54940;50.842;4.410;2023-08-20T13:11:57;31.80;99.90
68139;DHT22;54940;50.842;4.410;2023-08-20T13:14:23;31.80;99.90
68139;DHT22;54940;50.842;4.410;2023-08-20T13:16:49;31.70;99.90
68139;DHT22;54940;50.842;4.410;2023-08-20T13:19:15;31.60;99.90
68139;DHT22;54940;50.842;4.410;2023-08-20T13:21:40;31.60;99.90
68139;DHT22;54940;50.842;4.410;2023-08-20T13:24:07;31.80;99.90
68139;DHT22;54940;50.842;4.410;2023-08-20T13:26:33;32.10;99.90
68139;DHT22;54940;50.842;4.410;2023-08-20T13:28:59;32.50;99.90
68139;DHT22;54940;50.842;4.410;2023-08-20T13:31:24;32.60;99.90
68139;DHT22;54940;50.842;4.410;2023-08-20T13:33:51;32.40;99.90
68139;DHT22;54940;50.842;4.410;2023-08-20T13:36:16;32.50;99.90
68139;DHT22;54940;50.842;4.410;2023-08-20T13:38:42;32.10;99.90
68139;DHT22;54940;50.842;4.410;2023-08-20T13:41:08;31.30;99.90
68139;DHT22;54940;50.842;4.410;2023-08-20T13:43:35;30.90;99.90
68139;DHT22;54940;50.842;4.410;2023-08-20T13:46:00;30.80;99.90
68139;DHT22;54940;50.842;4.410;2023-08-20T13:48:26;30.70;99.90
68139;DHT22;54940;50.842;4.410;2023-08-20T13:50:52;31.00;99.90
68139;DHT22;54940;50.842;4.410;2023-08-20T13:53:17;31.10;99.90
68139;DHT22;54940;50.842;4.410;2023-08-20T13:55:43;31.20;99.90
68139;DHT22;54940;50.842;4.410;2023-08-20T13:58:08;31.40;99.90
68139;DHT22;54940;50.842;4.410;2023-08-20T14:00:34;31.10;99.90
68139;DHT22;54940;50.842;4.410;2023-08-20T14:03:03;31.00;99.90
68139;DHT22;54940;50.842;4.410;2023-08-20T14:05:28;31.00;99.90
68139;DHT22;54940;50.842;4.410;2023-08-20T14:07:54;30.90;99.90
68139;DHT22;54940;50.842;4.410;2023-08-20T14:10:20;31.00;99.90
68139;DHT22;54940;50.842;4.410;2023-08-20T14:12:46;31.10;99.90
68139;DHT22;54940;50.842;4.410;2023-08-20T14:15:11;31.40;99.90
68139;DHT22;54940;50.842;4.410;2023-08-20T14:17:37;31.60;99.90
68139;DHT22;54940;50.842;4.410;2023-08-20T14:20:03;31.60;99.90
68139;DHT22;54940;50.842;4.410;2023-08-20T14:22:32;31.90;99.90
68139;DHT22;54940;50.842;4.410;2023-08-20T14:24:58;32.10;99.90
68139;DHT22;54940;50.842;4.410;2023-08-20T14:27:23;32.20;99.90
68139;DHT22;54940;50.842;4.410;2023-08-20T14:29:49;32.20;99.90
68139;DHT22;54940;50.842;4.410;2023-08-20T14:32:15;32.00;99.90
68139;DHT22;54940;50.842;4.410;2023-08-20T14:34:43;31.70;99.90
68139;DHT22;54940;50.842;4.410;2023-08-20T14:37:08;31.50;99.90
68139;DHT22;54940;50.842;4.410;2023-08-20T14:39:38;31.40;99.90
68139;DHT22;54940;50.842;4.410;2023-08-20T14:42:04;31.30;99.90
68139;DHT22;54940;50.842;4.410;2023-08-20T14:44:30;31.10;99.90
68139;DHT22;54940;50.842;4.410;2023-08-20T14:46:55;31.00;99.90
68139;DHT22;54940;50.842;4.410;2023-08-20T14:49:21;30.70;99.90
68139;DHT22;54940;50.842;4.410;2023-08-20T14:51:48;30.60;99.90
68139;DHT22;54940;50.842;4.410;2023-08-20T14:54:14;30.70;99.90
68139;DHT22;54940;50.842;4.410;2023-08-20T14:56:39;30.90;99.90
68139;DHT22;54940;50.842;4.410;2023-08-20T14:59:05;31.00;99.90
68139;DHT22;54940;50.842;4.410;2023-08-20T15:01:31;31.30;99.90
68139;DHT22;54940;50.842;4.410;2023-08-20T15:03:56;31.20;99.90
68139;DHT22;54940;50.842;4.410;2023-08-20T15:06:22;31.30;99.90
68139;DHT22;54940;50.842;4.410;2023-08-20T15:08:50;31.10;99.90
68139;DHT22;54940;50.842;4.410;2023-08-20T15:11:16;30.90;99.90
68139;DHT22;54940;50.842;4.410;2023-08-20T15:13:41;30.70;99.90
68139;DHT22;54940;50.842;4.410;2023-08-20T15:16:07;30.50;99.90
68139;DHT22;54940;50.842;4.410;2023-08-20T15:18:34;30.40;99.90
68139;DHT22;54940;50.842;4.410;2023-08-20T15:21:00;30.30;99.90
68139;DHT22;54940;50.842;4.410;2023-08-20T15:23:29;30.10;99.90
68139;DHT22;54940;50.842;4.410;2023-08-20T15:25:57;30.00;99.90
68139;DHT22;54940;50.842;4.410;2023-08-20T15:28:24;29.90;99.90
68139;DHT22;54940;50.842;4.410;2023-08-20T15:30:56;29.80;99.90
68139;DHT22;54940;50.842;4.410;2023-08-20T15:33:22;29.80;99.90
68139;DHT22;54940;50.842;4.410;2023-08-20T15:35:48;29.70;99.90
68139;DHT22;54940;50.842;4.410;2023-08-20T15:38:13;29.80;99.90
68139;DHT22;54940;50.842;4.410;2023-08-20T15:40:39;29.90;99.90
68139;DHT22;54940;50.842;4.410;2023-08-20T15:43:05;29.80;99.90